sensor_id;sensor_type;location;lat;lon;timestamp;temperature;humidity
32877;DHT22;19226;51.600;8.034;2022-08-21T00:02:18;18.40;99.90
32877;DHT22;19226;51.600;8.034;2022-08-21T00:05:05;18.40;99.90
32877;DHT22;19226;51.600;8.034;2022-08-21T00:07:52;18.40;99.90
32877;DHT22;19226;51.600;8.034;2022-08-21T00:10:39;18.30;99.90
32877;DHT22;19226;51.600;8.034;2022-08-21T00:13:25;18.30;99.90
32877;DHT22;19226;51.600;8.034;2022-08-21T00:16:12;18.20;99.90
32877;DHT22;19226;51.600;8.034;2022-08-21T00:18:58;18.20;99.90
32877;DHT22;19226;51.600;8.034;2022-08-21T00:21:45;18.20;99.90
32877;DHT22;19226;51.600;8.034;2022-08-21T00:24:31;18.10;99.90
32877;DHT22;19226;51.600;8.034;2022-08-21T00:27:18;18.10;99.90
32877;DHT22;19226;51.600;8.034;2022-08-21T00:30:06;18.10;99.90
32877;DHT22;19226;51.600;8.034;2022-08-21T00:32:54;18.10;99.90
32877;DHT22;19226;51.600;8.034;2022-08-21T00:35:42;18.00;99.90
32877;DHT22;19226;51.600;8.034;2022-08-21T00:38:29;18.00;99.90
32877;DHT22;19226;51.600;8.034;2022-08-21T00:41:15;17.90;99.90
32877;DHT22;19226;51.600;8.034;2022-08-21T00:44:02;17.90;99.90
32877;DHT22;19226;51.600;8.034;2022-08-21T00:46:49;17.80;99.90
32877;DHT22;19226;51.600;8.034;2022-08-21T00:49:36;17.80;99.90
32877;DHT22;19226;51.600;8.034;2022-08-21T00:52:28;17.80;99.90
32877;DHT22;19226;51.600;8.034;2022-08-21T00:55:15;17.80;99.90
32877;DHT22;19226;51.600;8.034;2022-08-21T00:58:04;17.80;99.90
32877;DHT22;19226;51.600;8.034;2022-08-21T01:00:53;17.80;99.90
32877;DHT22;19226;51.600;8.034;2022-08-21T01:03:40;17.70;99.90
32877;DHT22;19226;51.600;8.034;2022-08-21T01:06:26;17.70;99.90
32877;DHT22;19226;51.600;8.034;2022-08-21T01:09:14;17.70;99.90
32877;DHT22;19226;51.600;8.034;2022-08-21T01:12:00;17.70;99.90
32877;DHT22;19226;51.600;8.034;2022-08-21T01:14:47;17.60;99.90
32877;DHT22;19226;51.600;8.034;2022-08-21T01:17:35;17.60;99.90
32877;DHT22;19226;51.600;8.034;2022-08-21T01:20:22;17.60;99.90
32877;DHT22;19226;51.600;8.034;2022-08-21T01:23:08;17.60;99.90
32877;DHT22;19226;51.600;8.034;2022-08-21T01:25:55;17.50;99.90
32877;DHT22;19226;51.600;8.034;2022-08-21T01:31:52;17.50;99.90
32877;DHT22;19226;51.600;8.034;2022-08-21T01:34:41;17.50;99.90
32877;DHT22;19226;51.600;8.034;2022-08-21T01:37:28;17.50;99.90
32877;DHT22;19226;51.600;8.034;2022-08-21T01:40:16;17.50;99.90
32877;DHT22;19226;51.600;8.034;2022-08-21T01:43:06;17.50;99.90
32877;DHT22;19226;51.600;8.034;2022-08-21T01:45:52;17.40;99.90
32877;DHT22;19226;51.600;8.034;2022-08-21T01:48:38;17.30;99.90
32877;DHT22;19226;51.600;8.034;2022-08-21T01:51:25;17.30;99.90
32877;DHT22;19226;51.600;8.034;2022-08-21T01:54:11;17.40;99.90
32877;DHT22;19226;51.600;8.034;2022-08-21T01:56:58;17.30;99.90
32877;DHT22;19226;51.600;8.034;2022-08-21T01:59:45;17.30;99.90
32877;DHT22;19226;51.600;8.034;2022-08-21T02:05:56;17.30;99.90
32877;DHT22;19226;51.600;8.034;2022-08-21T02:08:43;17.20;99.90
32877;DHT22;19226;51.600;8.034;2022-08-21T02:11:30;17.20;99.90
32877;DHT22;19226;51.600;8.034;2022-08-21T02:14:17;17.20;99.90
32877;DHT22;19226;51.600;8.034;2022-08-21T02:17:03;17.20;99.90
32877;DHT22;19226;51.600;8.034;2022-08-21T02:19:50;17.20;99.90
32877;DHT22;19226;51.600;8.034;2022-08-21T02:22:36;17.20;99.90
32877;DHT22;19226;51.600;8.034;2022-08-21T02:25:24;17.20;99.90
32877;DHT22;19226;51.600;8.034;2022-08-21T02:28:13;17.20;99.90
32877;DHT22;19226;51.600;8.034;2022-08-21T02:31:01;17.20;99.90
32877;DHT22;19226;51.600;8.034;2022-08-21T02:33:47;17.20;99.90
32877;DHT22;19226;51.600;8.034;2022-08-21T02:36:33;17.20;99.90
32877;DHT22;19226;51.600;8.034;2022-08-21T02:39:20;17.20;99.90
32877;DHT22;19226;51.600;8.034;2022-08-21T02:42:06;17.20;99.90
32877;DHT22;19226;51.600;8.034;2022-08-21T02:44:53;17.10;99.90
32877;DHT22;19226;51.600;8.034;2022-08-21T02:47:40;17.00;99.90
32877;DHT22;19226;51.600;8.034;2022-08-21T02:50:35;17.10;99.90
32877;DHT22;19226;51.600;8.034;2022-08-21T02:53:22;17.10;99.90
32877;DHT22;19226;51.600;8.034;2022-08-21T02:56:10;17.10;99.90
32877;DHT22;19226;51.600;8.034;2022-08-21T02:58:57;17.10;99.90
32877;DHT22;19226;51.600;8.034;2022-08-21T03:01:44;17.20;99.90
32877;DHT22;19226;51.600;8.034;2022-08-21T03:04:30;17.20;99.90
32877;DHT22;19226;51.600;8.034;2022-08-21T03:07:16;17.20;99.90
32877;DHT22;19226;51.600;8.034;2022-08-21T03:10:04;17.10;99.90
32877;DHT22;19226;51.600;8.034;2022-08-21T03:12:51;17.10;99.90
32877;DHT22;19226;51.600;8.034;2022-08-21T03:15:37;17.00;99.90
32877;DHT22;19226;51.600;8.034;2022-08-21T03:18:24;17.10;99.90
32877;DHT22;19226;51.600;8.034;2022-08-21T03:21:11;17.10;99.90
32877;DHT22;19226;51.600;8.034;2022-08-21T03:23:59;17.10;99.90
32877;DHT22;19226;51.600;8.034;2022-08-21T03:26:45;17.20;99.90
32877;DHT22;19226;51.600;8.034;2022-08-21T03:29:31;17.20;99.90
32877;DHT22;19226;51.600;8.034;2022-08-21T03:32:18;17.30;99.90
32877;DHT22;19226;51.600;8.034;2022-08-21T03:35:05;17.30;99.90
32877;DHT22;19226;51.600;8.034;2022-08-21T03:37:52;17.30;99.90
32877;DHT22;19226;51.600;8.034;2022-08-21T03:40:38;17.40;99.90
32877;DHT22;19226;51.600;8.034;2022-08-21T03:43:25;17.40;99.90
32877;DHT22;19226;51.600;8.034;2022-08-21T03:46:12;17.40;99.90
32877;DHT22;19226;51.600;8.034;2022-08-21T03:48:59;17.30;99.90
32877;DHT22;19226;51.600;8.034;2022-08-21T03:51:46;17.30;99.90
32877;DHT22;19226;51.600;8.034;2022-08-21T03:54:32;17.30;99.90
32877;DHT22;19226;51.600;8.034;2022-08-21T03:57:19;17.30;99.90
32877;DHT22;19226;51.600;8.034;2022-08-21T04:00:06;17.40;99.90
32877;DHT22;19226;51.600;8.034;2022-08-21T04:02:56;17.40;99.90
32877;DHT22;19226;51.600;8.034;2022-08-21T04:05:43;17.40;99.90
32877;DHT22;19226;51.600;8.034;2022-08-21T04:08:31;17.40;99.90
32877;DHT22;19226;51.600;8.034;2022-08-21T04:11:17;17.40;99.90
32877;DHT22;19226;51.600;8.034;2022-08-21T04:14:04;17.40;99.90
32877;DHT22;19226;51.600;8.034;2022-08-21T04:16:50;17.40;99.90
32877;DHT22;19226;51.600;8.034;2022-08-21T04:19:36;17.40;99.90
32877;DHT22;19226;51.600;8.034;2022-08-21T04:22:23;17.30;99.90
32877;DHT22;19226;51.600;8.034;2022-08-21T04:25:09;17.20;99.90
32877;DHT22;19226;51.600;8.034;2022-08-21T04:27:55;17.10;99.90
32877;DHT22;19226;51.600;8.034;2022-08-21T04:30:42;17.00;99.90
32877;DHT22;19226;51.600;8.034;2022-08-21T04:33:29;16.90;99.90
32877;DHT22;19226;51.600;8.034;2022-08-21T04:36:15;16.90;99.90
32877;DHT22;19226;51.600;8.034;2022-08-21T04:39:01;16.90;99.90
32877;DHT22;19226;51.600;8.034;2022-08-21T04:41:47;16.80;99.90
32877;DHT22;19226;51.600;8.034;2022-08-21T04:44:35;16.80;99.90
32877;DHT22;19226;51.600;8.034;2022-08-21T04:47:21;16.70;99.90
32877;DHT22;19226;51.600;8.034;2022-08-21T04:50:08;16.70;99.90
32877;DHT22;19226;51.600;8.034;2022-08-21T04:52:55;16.70;99.90
32877;DHT22;19226;51.600;8.034;2022-08-21T04:55:42;16.60;99.90
32877;DHT22;19226;51.600;8.034;2022-08-21T04:58:29;16.60;99.90
32877;DHT22;19226;51.600;8.034;2022-08-21T05:01:20;16.60;99.90
32877;DHT22;19226;51.600;8.034;2022-08-21T05:04:10;16.60;99.90
32877;DHT22;19226;51.600;8.034;2022-08-21T05:07:01;16.50;99.90
32877;DHT22;19226;51.600;8.034;2022-08-21T05:09:49;16.40;99.90
32877;DHT22;19226;51.600;8.034;2022-08-21T05:12:35;16.40;99.90
32877;DHT22;19226;51.600;8.034;2022-08-21T05:15:22;16.40;99.90
32877;DHT22;19226;51.600;8.034;2022-08-21T05:18:08;16.40;99.90
32877;DHT22;19226;51.600;8.034;2022-08-21T05:20:55;16.40;99.90
32877;DHT22;19226;51.600;8.034;2022-08-21T05:23:41;16.40;99.90
32877;DHT22;19226;51.600;8.034;2022-08-21T05:26:28;16.40;99.90
32877;DHT22;19226;51.600;8.034;2022-08-21T05:29:16;16.40;99.90
32877;DHT22;19226;51.600;8.034;2022-08-21T05:32:09;16.50;99.90
32877;DHT22;19226;51.600;8.034;2022-08-21T05:34:55;16.50;99.90
32877;DHT22;19226;51.600;8.034;2022-08-21T05:37:41;16.60;99.90
32877;DHT22;19226;51.600;8.034;2022-08-21T05:40:28;16.70;99.90
32877;DHT22;19226;51.600;8.034;2022-08-21T05:43:15;16.80;99.90
32877;DHT22;19226;51.600;8.034;2022-08-21T05:46:03;16.90;99.90
32877;DHT22;19226;51.600;8.034;2022-08-21T05:48:50;16.90;99.90
32877;DHT22;19226;51.600;8.034;2022-08-21T05:51:36;17.00;99.90
32877;DHT22;19226;51.600;8.034;2022-08-21T05:54:25;17.10;99.90
32877;DHT22;19226;51.600;8.034;2022-08-21T05:57:11;17.20;99.90
32877;DHT22;19226;51.600;8.034;2022-08-21T05:59:58;17.30;99.90
32877;DHT22;19226;51.600;8.034;2022-08-21T06:02:45;17.30;99.90
32877;DHT22;19226;51.600;8.034;2022-08-21T06:05:31;17.40;99.90
32877;DHT22;19226;51.600;8.034;2022-08-21T06:08:18;17.50;99.90
32877;DHT22;19226;51.600;8.034;2022-08-21T06:11:05;17.60;99.90
32877;DHT22;19226;51.600;8.034;2022-08-21T06:13:52;17.70;99.90
32877;DHT22;19226;51.600;8.034;2022-08-21T06:16:38;17.80;99.90
32877;DHT22;19226;51.600;8.034;2022-08-21T06:19:25;17.90;99.90
32877;DHT22;19226;51.600;8.034;2022-08-21T06:22:11;18.10;99.90
32877;DHT22;19226;51.600;8.034;2022-08-21T06:24:57;18.20;99.90
32877;DHT22;19226;51.600;8.034;2022-08-21T06:27:44;18.40;99.90
32877;DHT22;19226;51.600;8.034;2022-08-21T06:30:30;18.50;99.90
32877;DHT22;19226;51.600;8.034;2022-08-21T06:33:16;18.60;99.90
32877;DHT22;19226;51.600;8.034;2022-08-21T06:36:03;18.80;99.90
32877;DHT22;19226;51.600;8.034;2022-08-21T06:38:49;18.90;99.90
32877;DHT22;19226;51.600;8.034;2022-08-21T06:41:36;19.00;99.90
32877;DHT22;19226;51.600;8.034;2022-08-21T06:44:22;19.10;99.90
32877;DHT22;19226;51.600;8.034;2022-08-21T06:47:11;19.30;99.90
32877;DHT22;19226;51.600;8.034;2022-08-21T06:49:57;19.50;99.90
32877;DHT22;19226;51.600;8.034;2022-08-21T06:52:43;19.60;99.90
32877;DHT22;19226;51.600;8.034;2022-08-21T06:55:30;19.70;99.90
32877;DHT22;19226;51.600;8.034;2022-08-21T06:58:17;19.90;99.90
32877;DHT22;19226;51.600;8.034;2022-08-21T07:01:04;20.10;99.90
32877;DHT22;19226;51.600;8.034;2022-08-21T07:03:51;20.20;99.90
32877;DHT22;19226;51.600;8.034;2022-08-21T07:06:37;20.40;99.90
32877;DHT22;19226;51.600;8.034;2022-08-21T07:09:24;20.50;99.90
32877;DHT22;19226;51.600;8.034;2022-08-21T07:12:10;20.70;99.90
32877;DHT22;19226;51.600;8.034;2022-08-21T07:14:57;20.80;99.90
32877;DHT22;19226;51.600;8.034;2022-08-21T07:17:44;20.90;99.90
32877;DHT22;19226;51.600;8.034;2022-08-21T07:20:31;21.00;99.90
32877;DHT22;19226;51.600;8.034;2022-08-21T07:23:29;21.10;99.90
32877;DHT22;19226;51.600;8.034;2022-08-21T07:26:18;21.30;99.90
32877;DHT22;19226;51.600;8.034;2022-08-21T07:29:06;21.50;99.90
32877;DHT22;19226;51.600;8.034;2022-08-21T07:31:53;21.50;99.90
32877;DHT22;19226;51.600;8.034;2022-08-21T07:34:39;21.70;99.90
32877;DHT22;19226;51.600;8.034;2022-08-21T07:37:25;21.80;99.90
32877;DHT22;19226;51.600;8.034;2022-08-21T07:40:13;21.90;99.90
32877;DHT22;19226;51.600;8.034;2022-08-21T07:43:00;22.10;99.90
32877;DHT22;19226;51.600;8.034;2022-08-21T07:45:47;22.30;99.90
32877;DHT22;19226;51.600;8.034;2022-08-21T07:48:35;22.40;99.90
32877;DHT22;19226;51.600;8.034;2022-08-21T07:51:25;22.60;99.90
32877;DHT22;19226;51.600;8.034;2022-08-21T07:54:12;22.70;99.90
32877;DHT22;19226;51.600;8.034;2022-08-21T07:56:59;22.80;99.90
32877;DHT22;19226;51.600;8.034;2022-08-21T07:59:45;22.90;99.90
32877;DHT22;19226;51.600;8.034;2022-08-21T08:02:33;23.10;99.90
32877;DHT22;19226;51.600;8.034;2022-08-21T08:05:22;23.20;99.90
32877;DHT22;19226;51.600;8.034;2022-08-21T08:08:13;23.30;99.90
32877;DHT22;19226;51.600;8.034;2022-08-21T08:11:00;23.40;99.90
32877;DHT22;19226;51.600;8.034;2022-08-21T08:13:50;23.60;99.90
32877;DHT22;19226;51.600;8.034;2022-08-21T08:16:36;23.70;99.90
32877;DHT22;19226;51.600;8.034;2022-08-21T08:19:23;23.90;99.90
32877;DHT22;19226;51.600;8.034;2022-08-21T08:22:23;24.00;99.90
32877;DHT22;19226;51.600;8.034;2022-08-21T08:25:14;24.00;99.90
32877;DHT22;19226;51.600;8.034;2022-08-21T08:28:04;24.10;99.90
32877;DHT22;19226;51.600;8.034;2022-08-21T08:30:51;24.20;99.90
32877;DHT22;19226;51.600;8.034;2022-08-21T08:33:38;24.30;99.90
32877;DHT22;19226;51.600;8.034;2022-08-21T08:36:33;24.40;99.90
32877;DHT22;19226;51.600;8.034;2022-08-21T08:39:44;24.50;99.90
32877;DHT22;19226;51.600;8.034;2022-08-21T08:54:21;25.10;99.90
32877;DHT22;19226;51.600;8.034;2022-08-21T08:57:19;25.10;99.90
32877;DHT22;19226;51.600;8.034;2022-08-21T09:05:46;25.50;99.90
32877;DHT22;19226;51.600;8.034;2022-08-21T09:22:06;25.90;99.90
32877;DHT22;19226;51.600;8.034;2022-08-21T09:25:25;26.00;99.90
32877;DHT22;19226;51.600;8.034;2022-08-21T09:28:20;26.10;99.90
32877;DHT22;19226;51.600;8.034;2022-08-21T09:31:35;26.20;99.90
32877;DHT22;19226;51.600;8.034;2022-08-21T09:38:27;26.50;99.90
32877;DHT22;19226;51.600;8.034;2022-08-21T09:41:32;26.50;99.90
32877;DHT22;19226;51.600;8.034;2022-08-21T10:07:36;27.00;99.90
32877;DHT22;19226;51.600;8.034;2022-08-21T10:35:08;27.50;99.90
32877;DHT22;19226;51.600;8.034;2022-08-21T10:56:47;27.90;99.90
32877;DHT22;19226;51.600;8.034;2022-08-21T11:03:04;28.10;99.90
32877;DHT22;19226;51.600;8.034;2022-08-21T11:05:59;28.40;99.90
32877;DHT22;19226;51.600;8.034;2022-08-21T11:09:29;28.60;99.90
32877;DHT22;19226;51.600;8.034;2022-08-21T11:18:27;28.40;99.90
32877;DHT22;19226;51.600;8.034;2022-08-21T11:21:27;28.40;99.90
32877;DHT22;19226;51.600;8.034;2022-08-21T11:24:39;28.50;99.90
32877;DHT22;19226;51.600;8.034;2022-08-21T11:27:42;28.40;99.90
32877;DHT22;19226;51.600;8.034;2022-08-21T11:30:41;28.60;99.90
32877;DHT22;19226;51.600;8.034;2022-08-21T11:34:10;28.60;99.90
32877;DHT22;19226;51.600;8.034;2022-08-21T11:40:54;28.90;99.20
32877;DHT22;19226;51.600;8.034;2022-08-21T11:43:56;29.10;99.90
32877;DHT22;19226;51.600;8.034;2022-08-21T11:50:06;29.30;99.90
32877;DHT22;19226;51.600;8.034;2022-08-21T11:56:15;29.70;97.10
32877;DHT22;19226;51.600;8.034;2022-08-21T12:03:22;29.70;96.90
32877;DHT22;19226;51.600;8.034;2022-08-21T12:06:13;29.80;97.80
32877;DHT22;19226;51.600;8.034;2022-08-21T12:09:04;30.00;97.00
32877;DHT22;19226;51.600;8.034;2022-08-21T12:15:14;29.80;95.10
32877;DHT22;19226;51.600;8.034;2022-08-21T12:18:18;29.80;96.30
32877;DHT22;19226;51.600;8.034;2022-08-21T12:21:23;29.70;97.50
32877;DHT22;19226;51.600;8.034;2022-08-21T12:24:16;30.00;96.80
32877;DHT22;19226;51.600;8.034;2022-08-21T12:27:41;30.20;95.80
32877;DHT22;19226;51.600;8.034;2022-08-21T12:30:36;30.20;93.40
32877;DHT22;19226;51.600;8.034;2022-08-21T12:33:35;30.10;93.80
32877;DHT22;19226;51.600;8.034;2022-08-21T12:36:40;30.40;93.40
32877;DHT22;19226;51.600;8.034;2022-08-21T12:39:31;30.50;92.80
32877;DHT22;19226;51.600;8.034;2022-08-21T12:42:23;30.50;91.50
32877;DHT22;19226;51.600;8.034;2022-08-21T12:45:48;30.60;91.40
32877;DHT22;19226;51.600;8.034;2022-08-21T12:48:52;30.70;91.50
32877;DHT22;19226;51.600;8.034;2022-08-21T12:52:29;30.80;92.00
32877;DHT22;19226;51.600;8.034;2022-08-21T12:55:15;31.10;91.80
32877;DHT22;19226;51.600;8.034;2022-08-21T12:58:22;31.10;91.00
32877;DHT22;19226;51.600;8.034;2022-08-21T13:01:25;30.90;86.80
32877;DHT22;19226;51.600;8.034;2022-08-21T13:04:17;30.90;88.80
32877;DHT22;19226;51.600;8.034;2022-08-21T13:07:09;31.00;88.40
32877;DHT22;19226;51.600;8.034;2022-08-21T13:13:24;31.30;85.70
32877;DHT22;19226;51.600;8.034;2022-08-21T13:16:12;31.30;84.70
32877;DHT22;19226;51.600;8.034;2022-08-21T13:19:02;31.40;84.00
32877;DHT22;19226;51.600;8.034;2022-08-21T13:21:49;31.20;84.30
32877;DHT22;19226;51.600;8.034;2022-08-21T13:24:37;31.30;85.50
32877;DHT22;19226;51.600;8.034;2022-08-21T13:27:29;31.10;84.80
32877;DHT22;19226;51.600;8.034;2022-08-21T13:30:21;30.80;85.40
32877;DHT22;19226;51.600;8.034;2022-08-21T13:33:09;30.90;85.10
32877;DHT22;19226;51.600;8.034;2022-08-21T13:38:44;30.80;86.00
32877;DHT22;19226;51.600;8.034;2022-08-21T13:41:34;30.80;85.20
32877;DHT22;19226;51.600;8.034;2022-08-21T13:47:40;30.80;86.40
32877;DHT22;19226;51.600;8.034;2022-08-21T13:50:27;31.00;84.60
32877;DHT22;19226;51.600;8.034;2022-08-21T13:53:46;31.10;83.50
32877;DHT22;19226;51.600;8.034;2022-08-21T13:59:46;31.60;84.30
32877;DHT22;19226;51.600;8.034;2022-08-21T14:02:42;31.50;82.30
32877;DHT22;19226;51.600;8.034;2022-08-21T14:05:32;31.50;83.70
32877;DHT22;19226;51.600;8.034;2022-08-21T14:08:34;31.70;81.20
32877;DHT22;19226;51.600;8.034;2022-08-21T14:11:21;31.80;81.90
32877;DHT22;19226;51.600;8.034;2022-08-21T14:17:10;31.80;80.10
32877;DHT22;19226;51.600;8.034;2022-08-21T14:19:58;31.70;79.30
32877;DHT22;19226;51.600;8.034;2022-08-21T14:22:46;31.80;80.20
32877;DHT22;19226;51.600;8.034;2022-08-21T14:25:44;31.70;79.10
32877;DHT22;19226;51.600;8.034;2022-08-21T14:28:39;31.90;76.30
32877;DHT22;19226;51.600;8.034;2022-08-21T14:31:31;31.90;75.40
32877;DHT22;19226;51.600;8.034;2022-08-21T14:34:25;31.80;76.90
32877;DHT22;19226;51.600;8.034;2022-08-21T14:37:11;31.80;78.40
32877;DHT22;19226;51.600;8.034;2022-08-21T14:39:58;31.70;73.60
32877;DHT22;19226;51.600;8.034;2022-08-21T14:42:45;31.30;75.60
32877;DHT22;19226;51.600;8.034;2022-08-21T14:45:31;31.10;76.50
32877;DHT22;19226;51.600;8.034;2022-08-21T14:48:23;31.00;76.10
32877;DHT22;19226;51.600;8.034;2022-08-21T14:51:10;31.20;75.20
32877;DHT22;19226;51.600;8.034;2022-08-21T14:53:57;31.40;77.20
32877;DHT22;19226;51.600;8.034;2022-08-21T14:56:47;31.40;74.50
32877;DHT22;19226;51.600;8.034;2022-08-21T14:59:36;31.40;76.90
32877;DHT22;19226;51.600;8.034;2022-08-21T15:02:23;31.50;75.00
32877;DHT22;19226;51.600;8.034;2022-08-21T15:05:13;31.70;76.20
32877;DHT22;19226;51.600;8.034;2022-08-21T15:08:03;31.80;75.00
32877;DHT22;19226;51.600;8.034;2022-08-21T15:10:52;32.00;75.00
32877;DHT22;19226;51.600;8.034;2022-08-21T15:13:40;31.80;74.60
32877;DHT22;19226;51.600;8.034;2022-08-21T15:16:28;31.80;75.70
32877;DHT22;19226;51.600;8.034;2022-08-21T15:19:18;32.00;72.60
32877;DHT22;19226;51.600;8.034;2022-08-21T15:22:07;32.10;75.90
32877;DHT22;19226;51.600;8.034;2022-08-21T15:24:57;32.20;74.80
32877;DHT22;19226;51.600;8.034;2022-08-21T15:27:43;31.80;72.40
32877;DHT22;19226;51.600;8.034;2022-08-21T15:30:31;31.60;73.00
32877;DHT22;19226;51.600;8.034;2022-08-21T15:33:18;31.40;73.30
32877;DHT22;19226;51.600;8.034;2022-08-21T15:36:05;31.20;75.30
32877;DHT22;19226;51.600;8.034;2022-08-21T15:38:51;31.00;75.40
32877;DHT22;19226;51.600;8.034;2022-08-21T15:41:37;30.90;75.80
32877;DHT22;19226;51.600;8.034;2022-08-21T15:44:25;30.80;75.60
32877;DHT22;19226;51.600;8.034;2022-08-21T15:47:17;30.70;77.20
32877;DHT22;19226;51.600;8.034;2022-08-21T15:50:10;30.70;77.20
32877;DHT22;19226;51.600;8.034;2022-08-21T15:52:57;30.60;77.70
32877;DHT22;19226;51.600;8.034;2022-08-21T15:55:46;30.40;77.60
32877;DHT22;19226;51.600;8.034;2022-08-21T15:58:32;30.40;79.30
32877;DHT22;19226;51.600;8.034;2022-08-21T16:01:20;30.30;80.10
32877;DHT22;19226;51.600;8.034;2022-08-21T16:04:18;30.20;80.00
32877;DHT22;19226;51.600;8.034;2022-08-21T16:07:08;30.00;80.80
32877;DHT22;19226;51.600;8.034;2022-08-21T16:09:59;29.80;82.20
32877;DHT22;19226;51.600;8.034;2022-08-21T16:12:52;29.60;80.90
32877;DHT22;19226;51.600;8.034;2022-08-21T16:15:44;29.30;83.20
32877;DHT22;19226;51.600;8.034;2022-08-21T16:18:31;29.40;84.10
32877;DHT22;19226;51.600;8.034;2022-08-21T16:21:18;28.90;83.60
32877;DHT22;19226;51.600;8.034;2022-08-21T16:24:08;28.80;85.90
32877;DHT22;19226;51.600;8.034;2022-08-21T16:26:58;28.80;85.60
32877;DHT22;19226;51.600;8.034;2022-08-21T16:29:48;28.60;86.20
32877;DHT22;19226;51.600;8.034;2022-08-21T16:32:35;28.30;87.40
32877;DHT22;19226;51.600;8.034;2022-08-21T16:35:22;28.20;88.80
32877;DHT22;19226;51.600;8.034;2022-08-21T16:38:09;28.20;89.00
32877;DHT22;19226;51.600;8.034;2022-08-21T16:41:07;28.00;89.50
32877;DHT22;19226;51.600;8.034;2022-08-21T16:43:55;28.00;90.30
32877;DHT22;19226;51.600;8.034;2022-08-21T16:46:42;28.20;90.90
32877;DHT22;19226;51.600;8.034;2022-08-21T16:49:28;28.20;89.70
32877;DHT22;19226;51.600;8.034;2022-08-21T16:52:14;28.10;90.10
32877;DHT22;19226;51.600;8.034;2022-08-21T16:55:02;28.10;90.50
32877;DHT22;19226;51.600;8.034;2022-08-21T16:57:50;28.00;91.10
32877;DHT22;19226;51.600;8.034;2022-08-21T17:00:36;28.00;90.40
32877;DHT22;19226;51.600;8.034;2022-08-21T17:03:31;27.90;90.60
32877;DHT22;19226;51.600;8.034;2022-08-21T17:06:21;27.80;91.00
32877;DHT22;19226;51.600;8.034;2022-08-21T17:09:07;27.80;91.60
32877;DHT22;19226;51.600;8.034;2022-08-21T17:11:53;27.70;91.70
32877;DHT22;19226;51.600;8.034;2022-08-21T17:14:40;27.70;92.00
32877;DHT22;19226;51.600;8.034;2022-08-21T17:17:26;27.80;92.10
32877;DHT22;19226;51.600;8.034;2022-08-21T17:20:13;27.80;92.30
32877;DHT22;19226;51.600;8.034;2022-08-21T17:23:00;27.80;91.30
32877;DHT22;19226;51.600;8.034;2022-08-21T17:25:49;27.70;92.00
32877;DHT22;19226;51.600;8.034;2022-08-21T17:28:36;27.70;92.40
32877;DHT22;19226;51.600;8.034;2022-08-21T17:31:23;27.60;92.40
32877;DHT22;19226;51.600;8.034;2022-08-21T17:34:11;27.50;93.00
32877;DHT22;19226;51.600;8.034;2022-08-21T17:36:57;27.40;93.00
32877;DHT22;19226;51.600;8.034;2022-08-21T17:39:45;27.30;93.40
32877;DHT22;19226;51.600;8.034;2022-08-21T17:42:32;27.30;93.90
32877;DHT22;19226;51.600;8.034;2022-08-21T17:45:20;27.30;94.30
32877;DHT22;19226;51.600;8.034;2022-08-21T17:48:07;27.30;94.40
32877;DHT22;19226;51.600;8.034;2022-08-21T17:50:53;27.20;94.40
32877;DHT22;19226;51.600;8.034;2022-08-21T17:53:40;27.10;95.00
32877;DHT22;19226;51.600;8.034;2022-08-21T17:56:29;27.10;95.00
32877;DHT22;19226;51.600;8.034;2022-08-21T17:59:16;27.00;95.40
32877;DHT22;19226;51.600;8.034;2022-08-21T18:02:02;27.00;95.80
32877;DHT22;19226;51.600;8.034;2022-08-21T18:04:49;26.90;95.50
32877;DHT22;19226;51.600;8.034;2022-08-21T18:07:35;26.80;96.00
32877;DHT22;19226;51.600;8.034;2022-08-21T18:10:22;26.80;96.10
32877;DHT22;19226;51.600;8.034;2022-08-21T18:13:10;26.70;96.30
32877;DHT22;19226;51.600;8.034;2022-08-21T18:15:58;26.60;96.60
32877;DHT22;19226;51.600;8.034;2022-08-21T18:18:45;26.50;97.20
32877;DHT22;19226;51.600;8.034;2022-08-21T18:21:51;26.40;97.80
32877;DHT22;19226;51.600;8.034;2022-08-21T18:25:17;26.40;98.20
32877;DHT22;19226;51.600;8.034;2022-08-21T18:28:04;26.20;98.70
32877;DHT22;19226;51.600;8.034;2022-08-21T18:30:51;26.20;99.10
32877;DHT22;19226;51.600;8.034;2022-08-21T18:33:39;26.10;99.40
32877;DHT22;19226;51.600;8.034;2022-08-21T18:36:29;26.00;99.30
32877;DHT22;19226;51.600;8.034;2022-08-21T18:39:16;25.90;99.70
32877;DHT22;19226;51.600;8.034;2022-08-21T18:42:04;25.70;99.90
32877;DHT22;19226;51.600;8.034;2022-08-21T18:44:52;25.60;99.90
32877;DHT22;19226;51.600;8.034;2022-08-21T18:47:41;25.60;99.90
32877;DHT22;19226;51.600;8.034;2022-08-21T18:50:29;25.50;99.90
32877;DHT22;19226;51.600;8.034;2022-08-21T18:53:15;25.40;99.90
32877;DHT22;19226;51.600;8.034;2022-08-21T18:56:02;25.30;99.90
32877;DHT22;19226;51.600;8.034;2022-08-21T18:58:48;25.10;99.90
32877;DHT22;19226;51.600;8.034;2022-08-21T19:01:35;25.10;99.90
32877;DHT22;19226;51.600;8.034;2022-08-21T19:04:22;25.00;99.90
32877;DHT22;19226;51.600;8.034;2022-08-21T19:07:09;24.90;99.90
32877;DHT22;19226;51.600;8.034;2022-08-21T19:09:56;24.80;99.90
32877;DHT22;19226;51.600;8.034;2022-08-21T19:12:42;24.70;99.90
32877;DHT22;19226;51.600;8.034;2022-08-21T19:15:29;24.60;99.90
32877;DHT22;19226;51.600;8.034;2022-08-21T19:18:15;24.40;99.90
32877;DHT22;19226;51.600;8.034;2022-08-21T19:21:02;24.40;99.90
32877;DHT22;19226;51.600;8.034;2022-08-21T19:23:48;24.40;99.90
32877;DHT22;19226;51.600;8.034;2022-08-21T19:26:35;24.20;99.90
32877;DHT22;19226;51.600;8.034;2022-08-21T19:29:21;24.10;99.90
32877;DHT22;19226;51.600;8.034;2022-08-21T19:32:07;24.10;99.90
32877;DHT22;19226;51.600;8.034;2022-08-21T19:34:54;24.00;99.90
32877;DHT22;19226;51.600;8.034;2022-08-21T19:37:41;23.90;99.90
32877;DHT22;19226;51.600;8.034;2022-08-21T19:40:27;23.90;99.90
32877;DHT22;19226;51.600;8.034;2022-08-21T19:43:13;23.80;99.90
32877;DHT22;19226;51.600;8.034;2022-08-21T19:45:59;23.70;99.90
32877;DHT22;19226;51.600;8.034;2022-08-21T19:48:46;23.70;99.90
32877;DHT22;19226;51.600;8.034;2022-08-21T19:51:35;23.60;99.90
32877;DHT22;19226;51.600;8.034;2022-08-21T19:54:24;23.50;99.90
32877;DHT22;19226;51.600;8.034;2022-08-21T19:57:10;23.40;99.90
32877;DHT22;19226;51.600;8.034;2022-08-21T19:59:57;23.40;99.90
32877;DHT22;19226;51.600;8.034;2022-08-21T20:02:43;23.30;99.90
32877;DHT22;19226;51.600;8.034;2022-08-21T20:05:29;23.30;99.90
32877;DHT22;19226;51.600;8.034;2022-08-21T20:08:16;23.20;99.90
32877;DHT22;19226;51.600;8.034;2022-08-21T20:11:03;23.10;99.90
32877;DHT22;19226;51.600;8.034;2022-08-21T20:13:49;23.00;99.90
32877;DHT22;19226;51.600;8.034;2022-08-21T20:16:36;22.90;99.90
32877;DHT22;19226;51.600;8.034;2022-08-21T20:19:22;22.80;99.90
32877;DHT22;19226;51.600;8.034;2022-08-21T20:22:08;22.70;99.90